Time;durP1;ratioP1;P1;durP2;ratioP2;P2;SDS_P1;SDS_P2;PMS_P1;PMS_P2;Temp;Humidity;BMP_temperature;BMP_pressure;BME280_temperature;BME280_humidity;BME280_pressure;Samples;Min_cycle;Max_cycle;Signal;HPM_P1;HPM_P2
2022/01/25 00:31:16;;;;;;;;;;;21.40;45.40;;;;;;5136130;27;19923;-40
2022/01/25 00:33:48;;;;;;;;;;;21.40;45.40;;;;;;5136063;27;20443;-45
2022/01/25 00:36:16;;;;;;;;;;;21.40;45.40;;;;;;5135990;27;19977;-45
2022/01/25 00:38:44;;;;;;;;;;;21.40;45.50;;;;;;5135553;27;19923;-43
2022/01/25 00:41:11;;;;;;;;;;;21.40;45.40;;;;;;5135021;27;19965;-41
2022/01/25 00:43:38;;;;;;;;;;;21.40;45.40;;;;;;5135826;27;20379;-43
2022/01/25 00:46:08;;;;;;;;;;;21.40;45.40;;;;;;5136240;27;19953;-41
2022/01/25 00:51:46;;;;;;;;;;;21.40;45.50;;;;;;5136022;27;19924;-41
2022/01/25 00:54:16;;;;;;;;;;;21.40;45.40;;;;;;5134872;27;19984;-40
2022/01/25 00:56:45;;;;;;;;;;;21.40;45.50;;;;;;5134510;27;20378;-41
2022/01/25 00:59:14;;;;;;;;;;;21.40;45.50;;;;;;5135858;27;20332;-42
2022/01/25 01:01:42;;;;;;;;;;;21.40;45.50;;;;;;5135064;27;19923;-42
2022/01/25 01:04:09;;;;;;;;;;;21.40;45.50;;;;;;5135572;27;20271;-41
2022/01/25 01:06:37;;;;;;;;;;;21.40;45.50;;;;;;5135666;27;19927;-41
2022/01/25 01:09:11;;;;;;;;;;;21.40;45.50;;;;;;5134342;27;19966;-41
2022/01/25 01:11:46;;;;;;;;;;;21.40;45.50;;;;;;5134485;27;20338;-41
2022/01/25 01:14:21;;;;;;;;;;;21.40;45.50;;;;;;5135339;27;20329;-39
2022/01/25 01:38:54;;;;;;;;;;;21.30;45.40;;;;;;5114701;28;20299;-40
2022/01/25 01:43:04;;;;;;;;;;;21.30;45.50;;;;;;5135170;27;19927;-39
2022/01/25 01:45:40;;;;;;;;;;;21.30;45.40;;;;;;5135104;27;19931;-39
2022/01/25 01:48:10;;;;;;;;;;;21.30;45.50;;;;;;5135153;27;19988;-44
2022/01/25 01:50:38;;;;;;;;;;;21.30;45.50;;;;;;5134767;27;19928;-43
2022/01/25 01:53:06;;;;;;;;;;;21.30;45.50;;;;;;5134850;27;19923;-40
2022/01/25 01:55:33;;;;;;;;;;;21.30;45.50;;;;;;5132638;27;19969;-39
2022/01/25 01:58:00;;;;;;;;;;;21.30;45.50;;;;;;5135007;28;19976;-42
2022/01/25 02:00:33;;;;;;;;;;;21.30;45.50;;;;;;5134673;28;20317;-43
2022/01/25 02:03:01;;;;;;;;;;;21.30;45.50;;;;;;5135523;28;19923;-41
2022/01/25 02:05:29;;;;;;;;;;;21.30;45.50;;;;;;5134521;28;19930;-40
2022/01/25 02:07:56;;;;;;;;;;;21.30;45.50;;;;;;5134585;28;19966;-43
2022/01/25 02:10:23;;;;;;;;;;;21.30;45.50;;;;;;5133761;28;19924;-41
2022/01/25 02:12:51;;;;;;;;;;;21.30;45.50;;;;;;5133785;28;19927;-40
2022/01/25 02:15:22;;;;;;;;;;;21.30;45.50;;;;;;5136145;27;19966;-40
2022/01/25 02:23:22;;;;;;;;;;;21.30;45.50;;;;;;5138678;27;19923;-40
2022/01/25 02:25:50;;;;;;;;;;;21.30;45.50;;;;;;5136950;27;19923;-42
2022/01/25 02:28:17;;;;;;;;;;;21.30;45.50;;;;;;5138515;27;19945;-42
2022/01/25 02:30:44;;;;;;;;;;;21.30;45.50;;;;;;5138450;27;19923;-41
2022/01/25 02:33:11;;;;;;;;;;;21.30;45.50;;;;;;5138734;27;19946;-40
2022/01/25 02:35:40;;;;;;;;;;;21.30;45.50;;;;;;5138367;27;19945;-40
2022/01/25 02:38:07;;;;;;;;;;;21.30;45.50;;;;;;5138295;27;19975;-41
2022/01/25 02:40:35;;;;;;;;;;;21.30;45.60;;;;;;5137415;27;19927;-41
2022/01/25 02:43:02;;;;;;;;;;;21.20;45.40;;;;;;5137433;27;19927;-40
2022/01/25 02:45:34;;;;;;;;;;;21.30;45.60;;;;;;5138076;27;19932;-43
2022/01/25 02:50:50;;;;;;;;;;;21.30;45.60;;;;;;5138116;27;19976;-40
2022/01/25 02:53:17;;;;;;;;;;;21.30;45.60;;;;;;5138158;27;19962;-40
2022/01/25 02:55:44;;;;;;;;;;;21.20;45.50;;;;;;5137249;27;19928;-43
2022/01/25 02:58:11;;;;;;;;;;;21.20;45.50;;;;;;5118390;27;19969;-42
2022/01/25 03:00:38;;;;;;;;;;;21.20;45.50;;;;;;5117465;27;19927;-42
2022/01/25 03:03:06;;;;;;;;;;;21.20;45.50;;;;;;5117304;28;20398;-41
2022/01/25 03:05:33;;;;;;;;;;;21.20;45.50;;;;;;5117507;28;19967;-44
2022/01/25 03:08:00;;;;;;;;;;;21.20;45.50;;;;;;5117224;28;19924;-46
2022/01/25 03:10:34;;;;;;;;;;;21.20;45.50;;;;;;5117315;27;20343;-42
2022/01/25 03:13:01;;;;;;;;;;;21.20;45.50;;;;;;5136596;27;19924;-43
2022/01/25 03:15:54;;;;;;;;;;;21.20;45.50;;;;;;5137928;27;19924;-39
2022/01/25 03:21:16;;;;;;;;;;;21.20;45.50;;;;;;5137606;27;20017;-40
2022/01/25 03:23:44;;;;;;;;;;;21.20;45.50;;;;;;5137877;27;19923;-40
2022/01/25 03:26:11;;;;;;;;;;;21.20;45.50;;;;;;5136805;27;19967;-40
2022/01/25 03:28:38;;;;;;;;;;;21.20;45.50;;;;;;5136299;27;20351;-41
2022/01/25 03:31:05;;;;;;;;;;;21.20;45.50;;;;;;5137611;27;19924;-40
2022/01/25 03:33:32;;;;;;;;;;;21.20;45.50;;;;;;5137584;27;19924;-41
2022/01/25 03:35:59;;;;;;;;;;;21.20;45.60;;;;;;5137518;27;19923;-43
2022/01/25 03:38:26;;;;;;;;;;;21.20;45.50;;;;;;5137488;27;19993;-42
2022/01/25 03:40:53;;;;;;;;;;;21.20;45.60;;;;;;5136399;27;20021;-40
2022/01/25 03:43:20;;;;;;;;;;;21.20;45.60;;;;;;5136274;27;19924;-42
2022/01/25 03:46:00;;;;;;;;;;;21.20;45.60;;;;;;5136941;27;19927;-41
2022/01/25 03:50:54;;;;;;;;;;;21.20;45.60;;;;;;5137190;27;19924;-43
2022/01/25 03:53:21;;;;;;;;;;;21.20;45.60;;;;;;5136700;27;19974;-42
2022/01/25 03:55:53;;;;;;;;;;;21.20;45.50;;;;;;5136790;27;20387;-41
2022/01/25 03:58:20;;;;;;;;;;;21.20;45.50;;;;;;5135446;27;19924;-41
2022/01/25 04:00:49;;;;;;;;;;;21.20;45.60;;;;;;5136883;27;20361;-40
2022/01/25 04:03:24;;;;;;;;;;;21.20;45.50;;;;;;5137002;27;19924;-42
2022/01/25 04:05:53;;;;;;;;;;;21.20;45.60;;;;;;5136579;27;19927;-40
2022/01/25 04:08:20;;;;;;;;;;;21.20;45.60;;;;;;5136576;27;19927;-41
2022/01/25 04:10:47;;;;;;;;;;;21.20;45.60;;;;;;5136715;27;19966;-40
2022/01/25 04:13:14;;;;;;;;;;;21.20;45.60;;;;;;5134333;27;20379;-40
2022/01/25 04:15:45;;;;;;;;;;;21.20;45.60;;;;;;5136768;27;19923;-42
2022/01/25 04:18:31;;;;;;;;;;;21.20;45.60;;;;;;5136430;27;20382;-43
2022/01/25 04:21:07;;;;;;;;;;;21.20;45.60;;;;;;5136258;27;19959;-41
2022/01/25 04:26:19;;;;;;;;;;;21.20;45.60;;;;;;5135522;27;19974;-39
2022/01/25 04:28:46;;;;;;;;;;;21.10;45.50;;;;;;5135015;27;19927;-40
2022/01/25 04:31:16;;;;;;;;;;;21.20;45.60;;;;;;5136093;27;19976;-43
2022/01/25 04:33:55;;;;;;;;;;;21.20;45.60;;;;;;5137261;27;19923;-40
2022/01/25 04:36:55;;;;;;;;;;;21.10;45.50;;;;;;5136537;27;19949;-41
2022/01/25 04:53:15;;;;;;;;;;;21.10;45.50;;;;;;5115288;28;19976;-43
2022/01/25 04:55:53;;;;;;;;;;;21.10;45.50;;;;;;5115115;28;20022;-40
2022/01/25 04:58:31;;;;;;;;;;;21.10;45.50;;;;;;5128284;27;20378;-44
2022/01/25 05:00:58;;;;;;;;;;;21.10;45.50;;;;;;5135154;27;20389;-40
2022/01/25 05:03:35;;;;;;;;;;;21.10;45.50;;;;;;5135834;27;19923;-40
2022/01/25 05:06:11;;;;;;;;;;;21.10;45.50;;;;;;5135385;27;19972;-39
2022/01/25 05:08:44;;;;;;;;;;;21.10;45.50;;;;;;5135721;27;19923;-42
2022/01/25 05:11:20;;;;;;;;;;;21.10;45.50;;;;;;5135584;27;19951;-40
2022/01/25 05:13:54;;;;;;;;;;;21.10;45.50;;;;;;5133286;27;19967;-45
2022/01/25 05:19:08;;;;;;;;;;;21.10;45.50;;;;;;5135275;27;19923;-42
2022/01/25 05:24:20;;;;;;;;;;;21.10;45.50;;;;;;5135414;27;20378;-44
2022/01/25 05:26:47;;;;;;;;;;;21.10;45.50;;;;;;5116837;27;19976;-41
2022/01/25 05:29:15;;;;;;;;;;;21.10;45.50;;;;;;5129819;27;19951;-41
2022/01/25 05:31:42;;;;;;;;;;;21.10;45.60;;;;;;5135347;27;19923;-42
2022/01/25 05:34:09;;;;;;;;;;;21.10;45.60;;;;;;5134987;27;19928;-44
2022/01/25 05:36:36;;;;;;;;;;;21.10;45.60;;;;;;5135236;27;19923;-42
2022/01/25 05:39:29;;;;;;;;;;;21.10;45.60;;;;;;5135114;27;20006;-43
2022/01/25 05:42:12;;;;;;;;;;;21.10;45.50;;;;;;5134849;27;19962;-43
2022/01/25 05:47:26;;;;;;;;;;;21.10;45.50;;;;;;5134778;27;20412;-41
2022/01/25 05:49:53;;;;;;;;;;;21.10;45.60;;;;;;5133967;27;19928;-41
2022/01/25 05:52:20;;;;;;;;;;;21.10;45.50;;;;;;5134672;27;20022;-42
2022/01/25 05:54:48;;;;;;;;;;;21.10;45.50;;;;;;5134706;27;19980;-40
2022/01/25 05:57:15;;;;;;;;;;;21.10;45.50;;;;;;5134324;28;19976;-41
2022/01/25 05:59:43;;;;;;;;;;;21.10;45.60;;;;;;5133287;28;19923;-40
2022/01/25 06:02:11;;;;;;;;;;;21.10;45.60;;;;;;5134637;28;20366;-40
2022/01/25 06:04:39;;;;;;;;;;;21.10;45.60;;;;;;5134959;28;19930;-40
2022/01/25 06:07:05;;;;;;;;;;;21.10;45.60;;;;;;5134863;28;19945;-41
2022/01/25 06:09:40;;;;;;;;;;;21.10;45.50;;;;;;5134652;28;20030;-38
2022/01/25 06:12:08;;;;;;;;;;;21.10;45.60;;;;;;5134809;28;19927;-44
2022/01/25 06:14:37;;;;;;;;;;;21.10;45.60;;;;;;5133021;28;19923;-44
2022/01/25 06:17:04;;;;;;;;;;;21.10;45.60;;;;;;5134412;28;19977;-44
2022/01/25 06:19:31;;;;;;;;;;;21.10;45.60;;;;;;5134724;28;20406;-41
2022/01/25 06:21:59;;;;;;;;;;;21.10;45.60;;;;;;5116112;28;19924;-41
2022/01/25 06:24:26;;;;;;;;;;;21.10;45.60;;;;;;5134629;28;19924;-44
2022/01/25 06:26:53;;;;;;;;;;;21.10;45.60;;;;;;5134328;28;20394;-46
2022/01/25 06:29:19;;;;;;;;;;;21.10;45.60;;;;;;5132638;28;20006;-45
2022/01/25 06:31:47;;;;;;;;;;;21.10;45.60;;;;;;5134335;28;19923;-43
2022/01/25 06:34:15;;;;;;;;;;;21.10;45.60;;;;;;5134366;28;20005;-42
2022/01/25 06:36:42;;;;;;;;;;;21.10;45.60;;;;;;5134332;28;19952;-40
2022/01/25 06:39:09;;;;;;;;;;;21.10;45.60;;;;;;5134140;28;19924;-43
2022/01/25 06:41:37;;;;;;;;;;;21.10;45.60;;;;;;5134452;28;19923;-42
2022/01/25 06:44:05;;;;;;;;;;;21.10;45.60;;;;;;5132751;28;20263;-40
2022/01/25 06:46:32;;;;;;;;;;;21.00;45.50;;;;;;5134483;28;19923;-42
2022/01/25 06:49:00;;;;;;;;;;;21.10;45.50;;;;;;5134513;28;20034;-40
2022/01/25 06:51:30;;;;;;;;;;;21.00;45.50;;;;;;5134130;28;20374;-45
2022/01/25 06:53:57;;;;;;;;;;;21.00;45.50;;;;;;5134174;28;19971;-44
2022/01/25 06:56:24;;;;;;;;;;;21.10;45.60;;;;;;5134444;28;19927;-41
2022/01/25 06:58:51;;;;;;;;;;;21.00;45.50;;;;;;5132381;28;19968;-44
2022/01/25 07:01:18;;;;;;;;;;;21.10;45.60;;;;;;5135186;27;19927;-41
2022/01/25 07:03:45;;;;;;;;;;;21.00;45.50;;;;;;5137863;27;19923;-43
2022/01/25 07:06:12;;;;;;;;;;;21.00;45.50;;;;;;5138959;27;19924;-41
2022/01/25 07:08:40;;;;;;;;;;;21.10;45.50;;;;;;5137601;27;19924;-42
2022/01/25 07:11:07;;;;;;;;;;;21.10;45.60;;;;;;5137907;27;19969;-41
2022/01/25 07:13:33;;;;;;;;;;;21.00;45.50;;;;;;5135623;27;19973;-43
2022/01/25 07:16:00;;;;;;;;;;;21.10;45.60;;;;;;5137585;27;20018;-41
2022/01/25 07:18:27;;;;;;;;;;;21.10;45.50;;;;;;5137559;27;19927;-42
2022/01/25 07:20:54;;;;;;;;;;;21.00;45.50;;;;;;5137536;27;20379;-41
2022/01/25 07:23:21;;;;;;;;;;;21.00;45.50;;;;;;5137639;27;20006;-43
2022/01/25 07:25:48;;;;;;;;;;;21.00;45.50;;;;;;5137693;27;20014;-44
2022/01/25 07:28:16;;;;;;;;;;;21.00;45.50;;;;;;5137089;27;19980;-42
2022/01/25 07:30:43;;;;;;;;;;;21.10;45.50;;;;;;5133756;27;19923;-43
2022/01/25 07:33:31;;;;;;;;;;;21.00;45.40;;;;;;5137554;27;19931;-44
2022/01/25 07:36:01;;;;;;;;;;;21.00;45.40;;;;;;5119715;27;19924;-45
2022/01/25 07:38:28;;;;;;;;;;;21.10;45.50;;;;;;5137471;27;20340;-42
2022/01/25 07:40:55;;;;;;;;;;;21.10;45.50;;;;;;5137335;27;19924;-40
2022/01/25 07:43:25;;;;;;;;;;;21.10;45.60;;;;;;5137308;27;20013;-42
2022/01/25 07:45:54;;;;;;;;;;;21.10;45.50;;;;;;5133911;27;19931;-45
2022/01/25 07:48:26;;;;;;;;;;;21.10;45.50;;;;;;5136986;27;19924;-41
2022/01/25 07:51:01;;;;;;;;;;;21.10;45.50;;;;;;5136939;27;19923;-43
2022/01/25 07:53:28;;;;;;;;;;;21.10;45.50;;;;;;5136623;27;19980;-44
2022/01/25 07:55:55;;;;;;;;;;;21.10;45.50;;;;;;5137100;27;20005;-44
2022/01/25 07:58:21;;;;;;;;;;;21.10;45.50;;;;;;5137071;27;19962;-40
2022/01/25 08:00:48;;;;;;;;;;;21.10;45.50;;;;;;5134705;27;19963;-44
2022/01/25 08:03:19;;;;;;;;;;;21.10;45.50;;;;;;5136671;27;19923;-43
2022/01/25 08:05:55;;;;;;;;;;;21.10;45.50;;;;;;5136620;27;19923;-39
2022/01/25 08:08:43;;;;;;;;;;;21.10;45.50;;;;;;5127925;27;19976;-40
2022/01/25 08:11:27;;;;;;;;;;;21.10;45.50;;;;;;5020416;28;19921;-41
2022/01/25 08:14:20;;;;;;;;;;;21.10;45.50;;;;;;5021961;28;20433;-43
2022/01/25 08:17:02;;;;;;;;;;;21.10;45.50;;;;;;5053041;28;19924;-43
2022/01/25 08:19:52;;;;;;;;;;;21.10;45.60;;;;;;5052344;28;19960;-46
2022/01/25 08:22:49;;;;;;;;;;;21.10;45.60;;;;;;5041753;28;19932;-44
2022/01/25 08:25:40;;;;;;;;;;;21.10;45.60;;;;;;4956096;29;20013;-43
2022/01/25 08:28:23;;;;;;;;;;;21.10;45.60;;;;;;4955852;29;19970;-45
2022/01/25 08:30:57;;;;;;;;;;;21.20;45.70;;;;;;4951261;29;20267;-45
2022/01/25 08:33:40;;;;;;;;;;;21.20;45.70;;;;;;4955198;29;19958;-44
2022/01/25 08:36:18;;;;;;;;;;;21.20;46.30;;;;;;4954944;29;20296;-40
2022/01/25 08:38:52;;;;;;;;;;;21.20;45.80;;;;;;4954722;29;20355;-40
2022/01/25 08:41:23;;;;;;;;;;;21.20;45.80;;;;;;4954896;29;19927;-46
2022/01/25 08:44:10;;;;;;;;;;;21.20;45.70;;;;;;4953480;29;19942;-43
2022/01/25 08:46:42;;;;;;;;;;;21.20;45.70;;;;;;4953207;29;19976;-43
2022/01/25 08:49:27;;;;;;;;;;;21.20;45.70;;;;;;4994051;28;19926;-42
2022/01/25 08:52:04;;;;;;;;;;;21.20;45.70;;;;;;5012661;28;20321;-41
2022/01/25 08:55:03;;;;;;;;;;;21.20;45.60;;;;;;4916357;29;19927;-41
2022/01/25 08:57:40;;;;;;;;;;;21.30;45.70;;;;;;4915264;29;19927;-43
2022/01/25 09:00:25;;;;;;;;;;;21.20;45.60;;;;;;4923577;29;19934;-43
2022/01/25 09:02:52;;;;;;;;;;;21.20;45.60;;;;;;4995488;28;19929;-40
2022/01/25 09:05:19;;;;;;;;;;;21.30;45.60;;;;;;5012655;28;20348;-39
2022/01/25 09:07:46;;;;;;;;;;;21.20;45.50;;;;;;4996526;28;20008;-44
2022/01/25 09:10:13;;;;;;;;;;;21.30;45.60;;;;;;5012563;28;19932;-42
2022/01/25 09:12:40;;;;;;;;;;;21.30;45.60;;;;;;5012561;28;20413;-41
2022/01/25 09:15:07;;;;;;;;;;;21.30;45.50;;;;;;5016126;28;19984;-41
2022/01/25 09:17:34;;;;;;;;;;;21.30;45.50;;;;;;5032120;28;20015;-40
2022/01/25 09:20:02;;;;;;;;;;;21.30;45.40;;;;;;5089195;28;20444;-42
2022/01/25 09:22:29;;;;;;;;;;;21.30;45.40;;;;;;5114335;28;19962;-40
2022/01/25 09:25:16;;;;;;;;;;;21.30;45.40;;;;;;5114514;28;20022;-43
2022/01/25 09:27:46;;;;;;;;;;;21.40;45.40;;;;;;5114759;28;20298;-41
2022/01/25 09:30:13;;;;;;;;;;;21.40;45.40;;;;;;5114345;27;19963;-39
2022/01/25 09:32:41;;;;;;;;;;;21.40;45.40;;;;;;5114607;28;20349;-41
2022/01/25 09:35:08;;;;;;;;;;;21.40;45.30;;;;;;5096738;28;19992;-41
2022/01/25 09:37:35;;;;;;;;;;;21.40;45.30;;;;;;5114391;28;20394;-46
2022/01/25 09:40:02;;;;;;;;;;;21.40;45.20;;;;;;5114248;28;19924;-44
2022/01/25 09:42:30;;;;;;;;;;;21.40;45.20;;;;;;5114516;28;19924;-44
2022/01/25 09:44:58;;;;;;;;;;;21.40;45.20;;;;;;5113597;28;20379;-46
2022/01/25 09:47:26;;;;;;;;;;;21.50;45.20;;;;;;5134919;27;20338;-42
2022/01/25 09:49:53;;;;;;;;;;;21.50;45.20;;;;;;5134676;27;20004;-46
2022/01/25 09:52:20;;;;;;;;;;;21.50;45.20;;;;;;5134669;27;20306;-40
2022/01/25 09:54:54;;;;;;;;;;;21.50;45.10;;;;;;5135239;27;19924;-41
2022/01/25 09:57:22;;;;;;;;;;;21.50;45.10;;;;;;5134865;28;19923;-43
2022/01/25 09:59:49;;;;;;;;;;;21.50;45.00;;;;;;5134484;28;19923;-43
2022/01/25 10:05:37;;;;;;;;;;;21.50;44.90;;;;;;5031609;28;20044;-42
2022/01/25 10:08:09;;;;;;;;;;;21.60;45.00;;;;;;5031446;28;19926;-41
2022/01/25 10:10:38;;;;;;;;;;;21.60;44.90;;;;;;5031463;28;20031;-40
2022/01/25 10:13:15;;;;;;;;;;;21.60;44.90;;;;;;5032438;28;20546;-43
2022/01/25 10:15:42;;;;;;;;;;;21.60;44.80;;;;;;5029687;28;19947;-40
2022/01/25 10:18:17;;;;;;;;;;;21.60;44.70;;;;;;5031716;28;19925;-43
2022/01/25 10:20:48;;;;;;;;;;;21.60;44.70;;;;;;5016854;28;19925;-44
2022/01/25 10:23:18;;;;;;;;;;;21.70;44.70;;;;;;5011668;28;20329;-44
2022/01/25 10:25:47;;;;;;;;;;;21.70;44.70;;;;;;5011588;28;19932;-43
2022/01/25 10:28:15;;;;;;;;;;;21.70;44.60;;;;;;4995371;28;20449;-45
2022/01/25 10:30:47;;;;;;;;;;;21.70;44.60;;;;;;5010350;28;19933;-41
2022/01/25 10:33:18;;;;;;;;;;;21.70;44.50;;;;;;5010980;28;20321;-47
2022/01/25 10:35:46;;;;;;;;;;;21.70;44.50;;;;;;5038955;28;19981;-48
2022/01/25 10:38:24;;;;;;;;;;;21.80;44.50;;;;;;5097645;28;19924;-42
2022/01/25 10:41:05;;;;;;;;;;;21.80;44.50;;;;;;5097564;28;19924;-39
2022/01/25 10:43:33;;;;;;;;;;;21.80;44.40;;;;;;5098459;28;20014;-41
2022/01/25 10:46:04;;;;;;;;;;;21.80;44.40;;;;;;5095946;28;20379;-44
2022/01/25 10:48:31;;;;;;;;;;;21.80;44.40;;;;;;5097127;28;19924;-43
2022/01/25 10:51:05;;;;;;;;;;;21.80;44.30;;;;;;5097020;28;19924;-44
2022/01/25 10:53:32;;;;;;;;;;;21.80;44.30;;;;;;5096873;28;20027;-41
2022/01/25 10:56:00;;;;;;;;;;;21.90;44.30;;;;;;5097066;28;20005;-42
2022/01/25 10:58:28;;;;;;;;;;;21.90;44.30;;;;;;5097824;28;19973;-41
2022/01/25 11:00:55;;;;;;;;;;;21.90;44.30;;;;;;5096312;28;19974;-42
2022/01/25 11:03:26;;;;;;;;;;;21.90;44.30;;;;;;5096894;28;19924;-42
2022/01/25 11:05:54;;;;;;;;;;;21.90;44.20;;;;;;5097462;28;20314;-40
2022/01/25 11:08:22;;;;;;;;;;;21.90;44.10;;;;;;5096922;28;20027;-39
2022/01/25 11:10:59;;;;;;;;;;;21.90;44.10;;;;;;5096415;28;20012;-40
2022/01/25 11:13:36;;;;;;;;;;;21.90;44.10;;;;;;5079933;28;19931;-40
2022/01/25 11:16:07;;;;;;;;;;;22.00;44.20;;;;;;5095647;28;19924;-41
2022/01/25 11:18:36;;;;;;;;;;;22.00;44.10;;;;;;5096578;28;19924;-42
2022/01/25 11:21:05;;;;;;;;;;;22.00;44.10;;;;;;5113991;28;19924;-42
2022/01/25 11:23:33;;;;;;;;;;;22.00;44.10;;;;;;5116719;28;19945;-41
2022/01/25 11:26:02;;;;;;;;;;;22.00;44.10;;;;;;5116827;28;19982;-40
2022/01/25 11:28:31;;;;;;;;;;;22.00;44.10;;;;;;5117063;28;19923;-40
2022/01/25 11:31:02;;;;;;;;;;;22.00;44.10;;;;;;5116651;28;20375;-41
2022/01/25 11:33:30;;;;;;;;;;;22.00;44.10;;;;;;5116544;28;19924;-42
2022/01/25 11:35:57;;;;;;;;;;;22.00;44.00;;;;;;5116969;28;19928;-41
2022/01/25 11:38:31;;;;;;;;;;;22.00;44.10;;;;;;5116652;28;19924;-40
2022/01/25 11:40:59;;;;;;;;;;;22.00;44.00;;;;;;5117410;28;20302;-40
2022/01/25 11:43:26;;;;;;;;;;;22.00;44.00;;;;;;5116561;28;19923;-41
2022/01/25 11:46:00;;;;;;;;;;;22.00;44.00;;;;;;5116766;28;19924;-40
2022/01/25 11:48:34;;;;;;;;;;;22.00;44.00;;;;;;5114177;27;19934;-42
2022/01/25 11:51:02;;;;;;;;;;;22.00;44.00;;;;;;5116436;28;19997;-41
2022/01/25 11:53:37;;;;;;;;;;;22.00;43.90;;;;;;5116218;28;19923;-41
2022/01/25 11:56:08;;;;;;;;;;;22.00;43.90;;;;;;5116313;28;20371;-45
2022/01/25 11:58:36;;;;;;;;;;;22.00;43.90;;;;;;5098218;28;19923;-40
2022/01/25 12:01:14;;;;;;;;;;;22.00;43.90;;;;;;5116641;27;20010;-42
2022/01/25 12:03:44;;;;;;;;;;;22.00;43.90;;;;;;5115180;28;19928;-42
2022/01/25 12:06:17;;;;;;;;;;;22.00;43.90;;;;;;5116111;28;19924;-43
2022/01/25 12:11:49;;;;;;;;;;;22.00;43.90;;;;;;5116357;28;19958;-49
2022/01/25 12:14:27;;;;;;;;;;;22.00;44.00;;;;;;5115973;28;20003;-45
2022/01/25 12:16:57;;;;;;;;;;;22.10;44.00;;;;;;5115879;27;19927;-44
2022/01/25 12:19:30;;;;;;;;;;;22.00;44.00;;;;;;5115592;28;19924;-41
2022/01/25 12:21:58;;;;;;;;;;;22.10;44.00;;;;;;5115954;28;19924;-40
2022/01/25 12:24:30;;;;;;;;;;;22.10;44.00;;;;;;5115747;28;19924;-40
2022/01/25 12:29:40;;;;;;;;;;;22.10;44.00;;;;;;5115972;28;20354;-41
2022/01/25 12:32:28;;;;;;;;;;;22.10;44.00;;;;;;5114336;28;19980;-41
2022/01/25 12:35:00;;;;;;;;;;;22.10;44.00;;;;;;5115569;28;20382;-43
2022/01/25 12:37:42;;;;;;;;;;;22.10;44.00;;;;;;5115521;28;19931;-40
2022/01/25 12:40:31;;;;;;;;;;;22.10;44.00;;;;;;5115349;28;19971;-40
2022/01/25 12:43:00;;;;;;;;;;;22.10;44.00;;;;;;5115737;28;19928;-42
2022/01/25 12:45:28;;;;;;;;;;;22.10;44.00;;;;;;5115184;28;19923;-40
2022/01/25 12:48:05;;;;;;;;;;;22.10;44.00;;;;;;5114216;28;19946;-42
2022/01/25 12:50:34;;;;;;;;;;;22.10;44.10;;;;;;5115249;28;20387;-45
2022/01/25 12:53:02;;;;;;;;;;;22.10;44.00;;;;;;5114990;28;20015;-50
2022/01/25 12:55:31;;;;;;;;;;;22.00;43.90;;;;;;5115099;28;20014;-49
2022/01/25 12:57:58;;;;;;;;;;;22.00;43.90;;;;;;5097079;28;19986;-50
2022/01/25 13:00:31;;;;;;;;;;;22.10;44.10;;;;;;5115084;28;19923;-49
2022/01/25 13:03:10;;;;;;;;;;;22.00;43.90;;;;;;5114112;27;19927;-49
2022/01/25 13:05:48;;;;;;;;;;;22.00;43.90;;;;;;5114970;28;20484;-48
2022/01/25 13:08:19;;;;;;;;;;;22.00;44.00;;;;;;5114856;28;19924;-42
2022/01/25 13:10:48;;;;;;;;;;;22.00;44.00;;;;;;5097198;28;20268;-41
2022/01/25 13:13:23;;;;;;;;;;;22.10;44.10;;;;;;5115150;28;19924;-44
2022/01/25 13:15:56;;;;;;;;;;;22.00;44.00;;;;;;5115672;28;19930;-41
2022/01/25 13:18:28;;;;;;;;;;;22.00;44.00;;;;;;5113474;28;20371;-39
2022/01/25 13:21:00;;;;;;;;;;;22.00;44.00;;;;;;5114745;28;19970;-42
2022/01/25 13:23:27;;;;;;;;;;;22.00;44.00;;;;;;5114967;28;19924;-44
2022/01/25 13:25:58;;;;;;;;;;;22.00;44.00;;;;;;5114904;28;19931;-46
2022/01/25 13:28:39;;;;;;;;;;;22.00;44.00;;;;;;5114490;28;20391;-47
2022/01/25 13:31:20;;;;;;;;;;;22.00;44.00;;;;;;5114845;28;20327;-40
2022/01/25 13:33:48;;;;;;;;;;;22.00;44.00;;;;;;5113362;28;19927;-42
2022/01/25 13:36:16;;;;;;;;;;;22.00;44.10;;;;;;5115410;28;20008;-47
2022/01/25 13:38:43;;;;;;;;;;;22.00;44.10;;;;;;5114265;28;19923;-45
2022/01/25 13:46:26;;;;;;;;;;;22.00;44.00;;;;;;5114657;28;20327;-40
2022/01/25 13:48:55;;;;;;;;;;;22.00;44.00;;;;;;5113425;28;20006;-42
2022/01/25 13:51:24;;;;;;;;;;;22.00;44.00;;;;;;5114244;28;19931;-41
2022/01/25 13:53:58;;;;;;;;;;;22.00;44.00;;;;;;5114442;28;19923;-41
2022/01/25 13:56:27;;;;;;;;;;;22.00;44.00;;;;;;5114763;28;19927;-41
2022/01/25 13:58:54;;;;;;;;;;;22.00;44.10;;;;;;5114472;28;20359;-41
2022/01/25 14:01:23;;;;;;;;;;;22.00;44.00;;;;;;5114566;28;19923;-41
2022/01/25 14:03:58;;;;;;;;;;;22.00;44.10;;;;;;5113275;28;20329;-41
2022/01/25 14:06:25;;;;;;;;;;;22.00;44.00;;;;;;5114764;28;19931;-43
2022/01/25 14:08:54;;;;;;;;;;;22.10;44.10;;;;;;5113846;28;19985;-40
2022/01/25 14:11:27;;;;;;;;;;;22.10;44.10;;;;;;5097822;28;19949;-44
2022/01/25 14:25:05;;;;;;;;;;;22.10;44.10;;;;;;5118486;28;20336;-40
2022/01/25 14:27:39;;;;;;;;;;;22.00;44.00;;;;;;5118097;28;19923;-40
2022/01/25 14:30:06;;;;;;;;;;;22.10;44.10;;;;;;5118306;28;19949;-44
2022/01/25 14:32:34;;;;;;;;;;;22.10;44.10;;;;;;5117971;28;19972;-40
2022/01/25 14:35:01;;;;;;;;;;;22.10;44.10;;;;;;5117321;27;19924;-43
2022/01/25 14:37:28;;;;;;;;;;;22.10;44.10;;;;;;5117867;28;19928;-40
2022/01/25 14:40:06;;;;;;;;;;;22.10;44.10;;;;;;5118049;28;19924;-42
2022/01/25 14:42:33;;;;;;;;;;;22.10;44.10;;;;;;5117763;28;19931;-40
2022/01/25 14:45:01;;;;;;;;;;;22.10;44.10;;;;;;5117728;28;19977;-44
2022/01/25 14:47:35;;;;;;;;;;;22.10;44.10;;;;;;5117936;28;19934;-44
2022/01/25 14:50:04;;;;;;;;;;;22.00;44.10;;;;;;5116414;27;19930;-43
2022/01/25 14:52:31;;;;;;;;;;;22.10;44.20;;;;;;5117833;28;19924;-43
2022/01/25 14:54:58;;;;;;;;;;;22.00;44.10;;;;;;5117504;28;20010;-44
2022/01/25 14:57:36;;;;;;;;;;;22.00;44.10;;;;;;5117468;28;19974;-45
2022/01/25 15:00:04;;;;;;;;;;;22.10;44.20;;;;;;5117933;27;20006;-40
2022/01/25 15:02:33;;;;;;;;;;;22.10;44.20;;;;;;5117404;28;19928;-41
2022/01/25 15:05:02;;;;;;;;;;;22.10;44.20;;;;;;5116326;27;19955;-42
2022/01/25 15:07:32;;;;;;;;;;;22.00;44.10;;;;;;5117612;28;19930;-42
2022/01/25 15:10:03;;;;;;;;;;;22.10;44.20;;;;;;5117387;28;19930;-42
2022/01/25 15:12:38;;;;;;;;;;;22.10;44.20;;;;;;5117225;28;19927;-46
2022/01/25 15:17:33;;;;;;;;;;;22.10;44.20;;;;;;5117435;28;19928;-44
2022/01/25 15:20:01;;;;;;;;;;;22.10;44.20;;;;;;5115880;27;19923;-45
2022/01/25 15:22:29;;;;;;;;;;;22.00;44.10;;;;;;5116511;28;19933;-42
2022/01/25 15:24:57;;;;;;;;;;;22.10;44.10;;;;;;5116944;28;20329;-42
2022/01/25 15:27:29;;;;;;;;;;;22.10;44.10;;;;;;5117243;28;19924;-44
2022/01/25 15:29:57;;;;;;;;;;;22.10;44.10;;;;;;5099803;28;19973;-41
2022/01/25 15:32:25;;;;;;;;;;;22.10;44.10;;;;;;5117339;28;19923;-43
2022/01/25 15:34:52;;;;;;;;;;;22.10;44.10;;;;;;5115890;27;20268;-45
2022/01/25 15:37:19;;;;;;;;;;;22.10;44.10;;;;;;5116749;28;20294;-43
2022/01/25 15:39:46;;;;;;;;;;;22.10;44.10;;;;;;5116893;28;19946;-42
2022/01/25 15:42:15;;;;;;;;;;;22.10;44.10;;;;;;5116612;28;20406;-40
2022/01/25 15:44:47;;;;;;;;;;;22.10;44.10;;;;;;5116906;28;20319;-42
2022/01/25 15:47:15;;;;;;;;;;;22.10;44.10;;;;;;5116841;28;20048;-42
2022/01/25 15:49:43;;;;;;;;;;;22.10;44.10;;;;;;5115500;28;19930;-41
2022/01/25 15:52:11;;;;;;;;;;;22.10;44.10;;;;;;5116302;28;19931;-42
2022/01/25 15:54:39;;;;;;;;;;;22.10;44.10;;;;;;5116704;28;20318;-40
2022/01/25 15:57:06;;;;;;;;;;;22.10;44.10;;;;;;5116332;28;19931;-49
2022/01/25 15:59:33;;;;;;;;;;;22.10;44.10;;;;;;5098369;27;19970;-48
2022/01/25 16:02:10;;;;;;;;;;;22.10;44.10;;;;;;5116183;28;19924;-50
2022/01/25 16:04:41;;;;;;;;;;;22.10;44.10;;;;;;5115178;28;19924;-48
2022/01/25 16:07:14;;;;;;;;;;;22.10;44.10;;;;;;5115876;28;19975;-46
2022/01/25 16:09:43;;;;;;;;;;;22.10;44.00;;;;;;5115803;28;20018;-48
2022/01/25 16:12:13;;;;;;;;;;;22.20;44.10;;;;;;5116048;28;19923;-48
2022/01/25 16:14:43;;;;;;;;;;;22.10;44.10;;;;;;5116010;28;20370;-42
2022/01/25 16:17:12;;;;;;;;;;;22.10;44.10;;;;;;5115857;28;19928;-47
2022/01/25 16:19:39;;;;;;;;;;;22.10;44.10;;;;;;5114397;27;20522;-46
2022/01/25 16:22:06;;;;;;;;;;;22.10;44.00;;;;;;5115963;28;19989;-43
2022/01/25 16:24:33;;;;;;;;;;;22.10;43.50;;;;;;5116862;28;19923;-43
2022/01/25 16:27:00;;;;;;;;;;;22.10;42.80;;;;;;5115619;28;19930;-40
2022/01/25 16:29:27;;;;;;;;;;;22.10;42.50;;;;;;5115535;28;19978;-46
2022/01/25 16:31:57;;;;;;;;;;;22.10;42.70;;;;;;5115752;28;19930;-41
2022/01/25 16:34:25;;;;;;;;;;;22.10;42.80;;;;;;5114287;28;20018;-42
2022/01/25 16:36:52;;;;;;;;;;;22.10;42.90;;;;;;5115878;28;20332;-44
2022/01/25 16:39:19;;;;;;;;;;;22.10;42.90;;;;;;5115391;28;19934;-44